createdAt,value
2022-09-05T00:00:37.727Z,100668.53
2022-09-05T00:01:54.563Z,100665.97
2022-09-05T00:02:56.237Z,100662.66
2022-09-05T00:04:08.403Z,100666.66
2022-09-05T00:05:51.027Z,100661.66
2022-09-05T00:07:11.847Z,100661.16
2022-09-05T00:08:51.978Z,100662.31
2022-09-05T00:10:09.012Z,100665.16
2022-09-05T00:11:41.805Z,100658.97
2022-09-05T00:12:37.881Z,100657.28
2022-09-05T00:13:40.628Z,100657.63
2022-09-05T00:15:15.896Z,100664.47
2022-09-05T00:16:46.803Z,100655.44
2022-09-05T00:22:07.096Z,100663.97
2022-09-05T00:24:23.161Z,100655.28
2022-09-05T00:24:29.053Z,100662.13
2022-09-05T00:24:34.938Z,100663.63
2022-09-05T00:24:50.313Z,100659.09
2022-09-05T00:26:34.829Z,100658.59
2022-09-05T00:27:54.273Z,100659.75
2022-09-05T00:28:55.777Z,100667.75
2022-09-05T00:31:06.574Z,100670.59
2022-09-05T00:31:54.043Z,100658.75
2022-09-05T00:32:49.257Z,100664.75
2022-09-05T00:34:09.548Z,100661.91
2022-09-05T00:35:20.169Z,100654.56
2022-09-05T00:36:32.039Z,100656.06
2022-09-05T00:37:34.242Z,100653.25
2022-09-05T00:38:36.486Z,100654.38
2022-09-05T00:39:39.547Z,100655.53
2022-09-05T00:40:56.994Z,100658.38
2022-09-05T00:42:04.385Z,100656.72
2022-09-05T00:43:07.523Z,100650.53
2022-09-05T00:44:09.015Z,100648.84
2022-09-05T00:45:19.631Z,100649.16
2022-09-05T00:46:22.383Z,100650.66
2022-09-05T00:47:33.528Z,100652.16
2022-09-05T00:48:41.891Z,100651.63
2022-09-05T00:49:43.418Z,100649.97
2022-09-05T00:50:55.042Z,100644.63
2022-09-05T00:52:00.781Z,100656.31
2022-09-05T00:53:10.762Z,100644.28
2022-09-05T00:54:26.321Z,100642.78
2022-09-05T00:55:57.849Z,100643.13
2022-09-05T00:57:18.966Z,100655.09
2022-09-05T00:58:35.614Z,100648.06
2022-09-05T00:59:58.938Z,100649.56
2022-09-05T01:01:00.969Z,100650.25
2022-09-05T01:02:04.638Z,100640.91
2022-09-05T01:03:16.250Z,100645.22
2022-09-05T01:04:17.828Z,100648.06
2022-09-05T01:05:31.882Z,100649.19
2022-09-05T01:06:37.332Z,100643.53
2022-09-05T01:07:50.944Z,100643.03
2022-09-05T01:09:08.589Z,100639.34
2022-09-05T01:10:25.535Z,100636.84
2022-09-05T01:11:36.265Z,100640.00
2022-09-05T01:12:48.538Z,100644.00
2022-09-05T01:14:14.932Z,100639.50
2022-09-05T01:15:34.479Z,100637.84
2022-09-05T01:16:48.232Z,100636.50
2022-09-05T01:17:49.696Z,100641.13
2022-09-05T01:19:00.459Z,100641.78
2022-09-05T01:20:20.722Z,100643.59
2022-09-05T01:21:22.191Z,100643.72
2022-09-05T01:22:59.346Z,100646.06
2022-09-05T01:24:05.543Z,100641.88
2022-09-05T01:25:13.056Z,100652.38
2022-09-05T01:26:20.638Z,100643.38
2022-09-05T01:27:50.150Z,100645.69
2022-09-05T01:29:16.064Z,100625.81
2022-09-05T01:30:22.203Z,100637.50
2022-09-05T01:31:36.429Z,100632.69
2022-09-05T01:32:41.398Z,100635.53
2022-09-05T01:33:45.755Z,100629.00
2022-09-05T01:34:53.294Z,100626.50
2022-09-05T01:36:09.959Z,100633.81
2022-09-05T01:37:24.837Z,100635.00
2022-09-05T01:40:11.130Z,100628.81
2022-09-05T01:40:30.606Z,100628.31
2022-09-05T01:41:40.435Z,100630.31
2022-09-05T01:42:51.090Z,100636.31
2022-09-05T01:43:58.756Z,100627.25
2022-09-05T01:45:23.878Z,100625.59
2022-09-05T01:46:35.051Z,100623.91
2022-09-05T01:47:55.137Z,100625.91
2022-09-05T01:49:08.771Z,100624.53
2022-09-05T01:50:10.670Z,100623.38
2022-09-05T01:51:28.909Z,100624.53
2022-09-05T01:52:49.418Z,100615.53
2022-09-05T01:54:25.669Z,100619.53
2022-09-05T01:56:04.997Z,100612.03
2022-09-05T01:57:19.671Z,100612.03
2022-09-05T01:58:36.427Z,100624.50
2022-09-05T01:59:39.534Z,100614.34
2022-09-05T02:00:50.963Z,100611.81
2022-09-05T02:01:55.370Z,100622.00
2022-09-05T02:03:03.247Z,100611.81
2022-09-05T02:04:19.958Z,100621.47
2022-09-05T02:05:47.770Z,100619.78
2022-09-05T02:06:54.534Z,100618.13
2022-09-05T02:08:03.056Z,100622.94
2022-09-05T02:09:10.819Z,100622.13
2022-09-05T02:10:31.124Z,100628.94
2022-09-05T02:11:40.103Z,100634.94
2022-09-05T02:12:44.675Z,100634.09
2022-09-05T02:14:28.796Z,100632.44
2022-09-05T02:15:38.611Z,100633.59
2022-09-05T02:16:44.250Z,100641.25
2022-09-05T02:17:51.023Z,100640.41
2022-09-05T02:18:53.068Z,100635.91
2022-09-05T02:19:59.738Z,100639.88
2022-09-05T02:21:01.406Z,100634.53
2022-09-05T02:22:07.159Z,100639.69
2022-09-05T02:23:40.662Z,100634.84
2022-09-05T02:24:43.554Z,100640.00
2022-09-05T02:26:01.168Z,100640.00
2022-09-05T02:27:31.637Z,100632.69
2022-09-05T02:28:47.867Z,100639.84
2022-09-05T02:29:58.696Z,100644.66
2022-09-05T02:31:19.636Z,100643.00
2022-09-05T02:32:27.411Z,100642.16
2022-09-05T02:33:32.827Z,100642.47
2022-09-05T02:34:39.838Z,100638.78
2022-09-05T02:35:47.689Z,100632.28
2022-09-05T02:36:51.752Z,100635.09
2022-09-05T02:39:02.490Z,100632.28
2022-09-05T02:45:02.202Z,100637.09
2022-09-05T02:45:02.920Z,100637.94
2022-09-05T02:45:06.888Z,100644.75
2022-09-05T02:45:23.929Z,100637.44
2022-09-05T02:45:31.324Z,100641.44
2022-09-05T02:46:39.023Z,100635.75
2022-09-05T02:47:58.968Z,100635.25
2022-09-05T02:49:44.511Z,100641.75
2022-09-05T02:56:42.472Z,100630.25
2022-09-05T02:57:29.556Z,100630.56
2022-09-05T02:57:39.467Z,100632.84
2022-09-05T02:57:41.587Z,100628.88
2022-09-05T02:57:43.493Z,100630.34
2022-09-05T02:58:07.610Z,100630.34
2022-09-05T02:59:35.799Z,100628.66
2022-09-05T03:00:39.551Z,100639.16
2022-09-05T03:01:59.630Z,100638.31
2022-09-05T03:03:03.583Z,100633.81
2022-09-05T03:04:14.721Z,100636.97
2022-09-05T03:05:18.518Z,100633.31
2022-09-05T03:06:43.322Z,100633.31
2022-09-05T03:07:54.194Z,100634.47
2022-09-05T03:09:17.210Z,100627.97
2022-09-05T03:10:53.769Z,100631.13
2022-09-05T03:12:28.759Z,100626.63
2022-09-05T03:13:53.820Z,100627.78
2022-09-05T03:15:22.224Z,100635.72
2022-09-05T03:16:47.497Z,100634.06
2022-09-05T03:17:49.228Z,100630.72
2022-09-05T03:18:57.830Z,100633.03
2022-09-05T03:19:59.293Z,100628.53
2022-09-05T03:21:09.161Z,100641.00
2022-09-05T03:22:22.484Z,100637.66
2022-09-05T03:23:42.657Z,100630.34
2022-09-05T03:25:13.680Z,100634.31
2022-09-05T03:26:18.168Z,100636.59
2022-09-05T03:27:38.558Z,100632.94
2022-09-05T03:28:58.819Z,100639.44
2022-09-05T03:30:08.334Z,100632.09
2022-09-05T03:31:22.653Z,100631.28
2022-09-05T03:32:24.458Z,100632.09
2022-09-05T03:33:32.250Z,100634.38
2022-09-05T03:34:44.773Z,100613.66
2022-09-05T03:36:04.933Z,100629.88
2022-09-05T03:37:09.507Z,100631.03
2022-09-05T03:38:14.035Z,100628.22
2022-09-05T03:39:18.575Z,100629.38
2022-09-05T03:40:36.573Z,100632.19
2022-09-05T03:41:56.764Z,100639.00
2022-09-05T03:43:18.646Z,100623.19
2022-09-05T03:44:26.058Z,100627.19
2022-09-05T03:45:36.559Z,100618.78
2022-09-05T03:46:54.139Z,100629.19
2022-09-05T03:48:28.069Z,100626.34
2022-09-05T03:50:07.466Z,100635.13
2022-09-05T03:57:04.868Z,100627.50
2022-09-05T03:57:06.812Z,100628.63
2022-09-05T03:57:16.383Z,100634.28
2022-09-05T03:57:24.555Z,100632.63
2022-09-05T03:57:36.974Z,100619.63
2022-09-05T03:58:59.559Z,100634.09
2022-09-05T04:00:09.438Z,100632.09
2022-09-05T04:02:46.427Z,100639.75
2022-09-05T04:05:18.846Z,100640.41
2022-09-05T04:08:06.332Z,100637.25
2022-09-05T04:08:13.702Z,100642.06
2022-09-05T04:08:23.677Z,100639.25
2022-09-05T04:08:34.167Z,100636.41
2022-09-05T04:09:51.029Z,100629.09
2022-09-05T04:11:09.677Z,100637.56
2022-09-05T04:12:14.038Z,100631.59
2022-09-05T04:13:35.023Z,100625.09
2022-09-05T04:14:48.471Z,100626.78
2022-09-05T04:16:08.881Z,100632.44
2022-09-05T04:17:11.670Z,100642.06
2022-09-05T04:18:32.805Z,100641.56
2022-09-05T04:19:38.995Z,100638.72
2022-09-05T04:20:50.504Z,100638.72
2022-09-05T04:21:55.295Z,100647.22
2022-09-05T04:23:02.956Z,100648.38
2022-09-05T04:24:09.062Z,100647.53
2022-09-05T04:25:13.620Z,100659.69
2022-09-05T04:26:18.259Z,100655.50
2022-09-05T04:27:40.382Z,100662.28
2022-09-05T04:28:53.153Z,100664.28
2022-09-05T04:29:55.390Z,100656.63
2022-09-05T04:31:17.574Z,100660.31
2022-09-05T04:32:28.219Z,100664.28
2022-09-05T04:33:36.136Z,100650.13
2022-09-05T04:34:57.047Z,100653.81
2022-09-05T04:36:17.576Z,100652.13
2022-09-05T04:37:48.969Z,100651.28
2022-09-05T04:39:23.315Z,100652.13
2022-09-05T04:40:45.139Z,100656.94
2022-09-05T04:41:55.735Z,100654.44
2022-09-05T04:42:58.042Z,100653.59
2022-09-05T04:44:00.931Z,100656.44
2022-09-05T04:45:10.083Z,100664.91
2022-09-05T04:46:12.403Z,100657.28
2022-09-05T04:47:27.726Z,100659.25
2022-09-05T04:48:35.243Z,100651.94
2022-09-05T04:49:40.754Z,100664.91
2022-09-05T04:50:45.503Z,100662.09
2022-09-05T04:52:03.930Z,100657.59
2022-09-05T04:53:05.561Z,100663.25
2022-09-05T04:54:19.267Z,100656.75
2022-09-05T04:55:21.350Z,100663.25
2022-09-05T04:56:24.981Z,100657.59
2022-09-05T04:57:29.210Z,100658.75
2022-09-05T05:00:07.609Z,100656.75
2022-09-05T05:01:58.973Z,100663.25
2022-09-05T05:05:59.562Z,100668.91
2022-09-05T05:06:09.428Z,100674.56
2022-09-05T05:06:13.901Z,100668.06
2022-09-05T05:06:14.661Z,100673.72
2022-09-05T05:07:09.194Z,100679.06
2022-09-05T05:08:16.610Z,100674.56
2022-09-05T05:09:31.599Z,100677.38
2022-09-05T05:12:44.390Z,100681.38
2022-09-05T05:17:57.708Z,100687.88
2022-09-05T05:18:01.024Z,100679.38
2022-09-05T05:18:01.444Z,100679.38
2022-09-05T05:18:08.631Z,100684.19
2022-09-05T05:18:08.797Z,100683.38
2022-09-05T05:19:17.245Z,100679.06
2022-09-05T05:20:42.072Z,100691.53
2022-09-05T05:21:49.321Z,100688.38
2022-09-05T05:23:10.026Z,100692.88
2022-09-05T05:24:15.334Z,100689.22
2022-09-05T05:25:16.923Z,100691.72
2022-09-05T05:26:23.253Z,100694.28
2022-09-05T05:27:45.666Z,100685.78
2022-09-05T05:28:47.202Z,100687.47
2022-09-05T05:30:09.189Z,100690.28
2022-09-05T05:31:12.715Z,100687.47
2022-09-05T05:32:45.560Z,100699.28
2022-09-05T05:33:51.099Z,100689.66
2022-09-05T05:34:53.987Z,100694.16
2022-09-05T05:35:58.573Z,100695.81
2022-09-05T05:37:18.481Z,100694.66
2022-09-05T05:38:20.043Z,100696.34
2022-09-05T05:39:31.022Z,100690.69
2022-09-05T05:40:37.580Z,100695.19
2022-09-05T05:41:48.962Z,100698.53
2022-09-05T05:42:50.460Z,100695.69
2022-09-05T05:43:51.992Z,100699.09
2022-09-05T05:44:54.698Z,100701.91
2022-09-05T05:45:57.313Z,100697.94
2022-09-05T05:46:58.850Z,100699.59
2022-09-05T05:48:04.391Z,100704.94
2022-09-05T05:49:27.015Z,100707.44
2022-09-05T05:50:47.727Z,100697.81
2022-09-05T05:52:07.782Z,100701.19
2022-09-05T05:53:43.215Z,100702.84
2022-09-05T05:54:48.496Z,100711.03
2022-09-05T05:55:53.575Z,100709.03
2022-09-05T05:57:21.710Z,100707.91
2022-09-05T05:58:41.915Z,100710.94
2022-09-05T05:59:56.547Z,100709.78
2022-09-05T06:01:37.117Z,100710.28
2022-09-05T06:03:25.872Z,100705.47
2022-09-05T06:04:35.411Z,100715.63
2022-09-05T06:06:03.493Z,100702.00
2022-09-05T06:07:04.974Z,100713.31
2022-09-05T06:13:40.353Z,100700.81
2022-09-05T06:14:21.933Z,100707.31
2022-09-05T06:15:01.178Z,100702.50
2022-09-05T06:15:02.369Z,100704.72
2022-09-05T06:15:06.636Z,100716.03
2022-09-05T06:16:21.305Z,100710.38
2022-09-05T06:17:28.348Z,100689.63
2022-09-05T06:18:35.763Z,100717.72
2022-09-05T06:20:01.769Z,100716.56
2022-09-05T06:22:06.099Z,100716.22
2022-09-05T06:23:05.311Z,100721.25
2022-09-05T06:24:24.412Z,100725.44
2022-09-05T06:25:31.870Z,100722.00
2022-09-05T06:26:33.329Z,100718.50
2022-09-05T06:28:17.392Z,100716.19
2022-09-05T06:29:18.837Z,100716.09
2022-09-05T06:30:20.956Z,100720.28
2022-09-05T06:31:34.667Z,100722.47
2022-09-05T06:32:58.074Z,100711.31
2022-09-05T06:34:33.395Z,100720.88
2022-09-05T06:35:49.182Z,100717.91
2022-09-05T06:37:03.938Z,100722.59
2022-09-05T06:38:17.036Z,100718.84
2022-09-05T06:39:18.675Z,100724.34
2022-09-05T06:40:46.378Z,100712.88
2022-09-05T06:41:47.832Z,100711.66
2022-09-05T06:42:59.193Z,100721.16
2022-09-05T06:44:13.699Z,100713.72
2022-09-05T06:45:28.170Z,100719.25
2022-09-05T06:46:52.858Z,100717.94
2022-09-05T06:48:00.334Z,100717.16
2022-09-05T06:49:30.856Z,100725.56
2022-09-05T06:51:07.351Z,100715.41
2022-09-05T06:52:27.884Z,100720.31
2022-09-05T06:53:47.554Z,100716.97
2022-09-05T06:55:07.814Z,100721.38
2022-09-05T06:56:12.658Z,100726.88
2022-09-05T06:57:35.615Z,100721.91
2022-09-05T06:59:09.034Z,100722.59
2022-09-05T07:00:22.197Z,100720.81
2022-09-05T07:01:55.274Z,100724.69
2022-09-05T07:02:58.933Z,100724.53
2022-09-05T07:05:23.295Z,100730.03
2022-09-05T07:06:24.339Z,100727.56
2022-09-05T07:07:48.126Z,100722.56
2022-09-05T07:08:53.817Z,100723.59
2022-09-05T07:09:59.476Z,100725.78
2022-09-05T07:11:11.911Z,100726.44
2022-09-05T07:12:22.995Z,100731.97
2022-09-05T07:13:38.809Z,100725.63
2022-09-05T07:14:46.279Z,100722.66
2022-09-05T07:15:50.926Z,100729.34
2022-09-05T07:16:55.568Z,100732.00
2022-09-05T07:18:16.223Z,100724.81
2022-09-05T07:19:17.720Z,100732.03
2022-09-05T07:20:22.068Z,100733.06
2022-09-05T07:21:26.438Z,100730.91
2022-09-05T07:22:48.798Z,100726.56
2022-09-05T07:24:09.599Z,100736.59
2022-09-05T07:25:18.010Z,100731.09
2022-09-05T07:26:51.520Z,100736.59
2022-09-05T07:28:25.753Z,100737.25
2022-09-05T07:29:05.830Z,100733.44
2022-09-05T07:30:14.074Z,100732.75
2022-09-05T07:31:17.330Z,100732.91
2022-09-05T07:32:41.186Z,100734.75
2022-09-05T07:33:42.895Z,100741.78
2022-09-05T07:34:45.588Z,100735.41
2022-09-05T07:35:47.719Z,100745.78
2022-09-05T07:36:50.261Z,100745.94
2022-09-05T07:38:14.659Z,100742.59
2022-09-05T07:39:28.176Z,100735.91
2022-09-05T07:40:32.191Z,100738.25
2022-09-05T07:41:35.524Z,100734.41
2022-09-05T07:42:41.746Z,100743.59
2022-09-05T07:43:44.115Z,100732.38
2022-09-05T07:45:11.830Z,100737.88
2022-09-05T07:46:17.377Z,100743.03
2022-09-05T07:47:20.571Z,100740.03
2022-09-05T07:48:23.781Z,100737.00
2022-09-05T07:49:36.463Z,100729.09
2022-09-05T07:56:54.104Z,100736.28
2022-09-05T07:56:55.562Z,100743.22
2022-09-05T07:56:56.083Z,100739.41
2022-09-05T07:57:07.929Z,100741.91
2022-09-05T07:57:08.835Z,100738.91
2022-09-05T07:58:08.074Z,100736.50
2022-09-05T07:59:12.883Z,100735.97
2022-09-05T08:00:24.677Z,100740.13
2022-09-05T08:01:28.874Z,100739.44
2022-09-05T08:02:34.716Z,100734.75
2022-09-05T08:03:36.248Z,100734.53
2022-09-05T08:04:39.373Z,100740.72
2022-09-05T08:05:44.476Z,100731.16
2022-09-05T08:07:46.701Z,100725.25
2022-09-05T08:08:14.847Z,100735.28
2022-09-05T08:10:02.287Z,100729.69
2022-09-05T08:11:24.066Z,100738.53
2022-09-05T08:12:16.093Z,100734.31
2022-09-05T08:13:23.828Z,100736.97
2022-09-05T08:14:43.491Z,100734.41
2022-09-05T08:16:13.245Z,100740.72
2022-09-05T08:17:12.543Z,100739.34
2022-09-05T08:18:15.798Z,100739.94
2022-09-05T08:19:35.695Z,100735.56
2022-09-05T08:20:55.662Z,100739.53
2022-09-05T08:21:57.610Z,100727.56
2022-09-05T08:23:01.304Z,100731.84
2022-09-05T08:24:37.939Z,100733.66
2022-09-05T08:25:57.006Z,100725.00
2022-09-05T08:27:02.316Z,100725.28
2022-09-05T08:28:06.349Z,100727.56
2022-09-05T08:29:14.063Z,100717.63
2022-09-05T08:30:27.293Z,100723.56
2022-09-05T08:31:52.667Z,100724.66
2022-09-05T08:33:11.453Z,100718.84
2022-09-05T08:34:15.642Z,100729.31
2022-09-05T08:35:21.015Z,100722.19
2022-09-05T08:36:22.466Z,100721.59
2022-09-05T08:37:25.862Z,100715.66
2022-09-05T08:38:28.998Z,100717.09
2022-09-05T08:39:42.511Z,100718.19
2022-09-05T08:40:44.019Z,100723.66
2022-09-05T08:41:51.215Z,100716.84
2022-09-05T08:46:35.603Z,100726.03
2022-09-05T08:46:35.891Z,100722.44
2022-09-05T08:46:39.337Z,100719.84
2022-09-05T08:47:18.429Z,100711.94
2022-09-05T08:48:22.547Z,100717.91
2022-09-05T08:49:36.798Z,100709.06
2022-09-05T08:50:54.959Z,100710.59
2022-09-05T08:52:08.729Z,100707.16
2022-09-05T08:53:28.393Z,100713.44
2022-09-05T08:55:04.386Z,100711.75
2022-09-05T08:56:21.581Z,100708.00
2022-09-05T08:57:41.735Z,100705.81
2022-09-05T08:58:55.385Z,100713.75
2022-09-05T09:00:20.735Z,100717.22
2022-09-05T09:01:28.762Z,100712.66
2022-09-05T09:02:48.502Z,100712.66
2022-09-05T09:04:11.438Z,100711.13
2022-09-05T09:05:15.979Z,100711.81
2022-09-05T09:06:36.179Z,100695.16
2022-09-05T09:07:57.496Z,100707.88
2022-09-05T09:09:06.806Z,100711.34
2022-09-05T09:10:22.687Z,100709.06
2022-09-05T09:11:30.970Z,100708.03
2022-09-05T09:12:51.063Z,100712.56
2022-09-05T09:14:11.266Z,100709.53
2022-09-05T09:15:24.864Z,100716.66
2022-09-05T09:16:32.110Z,100713.97
2022-09-05T09:17:42.911Z,100711.03
2022-09-05T09:19:05.373Z,100713.72
2022-09-05T09:20:09.753Z,100707.22
2022-09-05T09:21:23.463Z,100719.44
2022-09-05T09:22:33.614Z,100710.59
2022-09-05T09:23:41.096Z,100721.03
2022-09-05T09:24:44.884Z,100711.06
2022-09-05T09:26:13.443Z,100706.97
2022-09-05T09:27:31.349Z,100708.19
2022-09-05T09:28:51.733Z,100711.41
2022-09-05T09:29:53.901Z,100711.88
2022-09-05T09:30:59.835Z,100706.88
2022-09-05T09:32:03.996Z,100698.25
2022-09-05T09:33:06.210Z,100698.25
2022-09-05T09:34:25.834Z,100704.00
2022-09-05T09:35:30.655Z,100700.31
2022-09-05T09:36:35.151Z,100693.94
2022-09-05T09:37:50.718Z,100692.59
2022-09-05T09:38:59.337Z,100693.25
2022-09-05T09:40:21.834Z,100688.09
2022-09-05T09:41:23.419Z,100691.19
2022-09-05T09:42:33.641Z,100683.53
2022-09-05T09:43:52.610Z,100674.50
2022-09-05T09:45:22.931Z,100679.63
2022-09-05T09:46:39.139Z,100675.78
2022-09-05T09:47:48.551Z,100676.09
2022-09-05T09:49:22.969Z,100671.06
2022-09-05T09:50:28.940Z,100671.25
2022-09-05T09:51:49.006Z,100658.72
2022-09-05T09:53:02.904Z,100668.78
2022-09-05T09:54:23.165Z,100662.53
2022-09-05T09:55:57.210Z,100671.34
2022-09-05T09:57:01.700Z,100670.69
2022-09-05T09:58:38.894Z,100661.00
2022-09-05T09:59:59.406Z,100661.22
2022-09-05T10:01:00.942Z,100654.59
2022-09-05T10:02:17.679Z,100651.94
2022-09-05T10:08:21.353Z,100632.88
2022-09-05T10:10:36.225Z,100646.44
2022-09-05T10:10:54.452Z,100649.94
2022-09-05T10:10:54.672Z,100649.25
2022-09-05T10:11:24.608Z,100646.53
2022-09-05T10:13:08.953Z,100646.03
2022-09-05T10:14:26.193Z,100644.13
2022-09-05T10:16:04.108Z,100652.88
2022-09-05T10:17:29.976Z,100641.81
2022-09-05T10:18:37.903Z,100641.47
2022-09-05T10:20:09.382Z,100648.06
2022-09-05T10:21:17.698Z,100638.22
2022-09-05T10:22:41.355Z,100637.03
2022-09-05T10:23:51.907Z,100628.44
2022-09-05T10:25:22.850Z,100621.09
2022-09-05T10:26:44.803Z,100635.16
2022-09-05T10:27:46.512Z,100629.41
2022-09-05T10:28:57.912Z,100622.00
2022-09-05T10:30:29.506Z,100622.44
2022-09-05T10:33:33.796Z,100623.66
2022-09-05T10:35:15.320Z,100618.66
2022-09-05T10:35:17.847Z,100622.00
2022-09-05T10:36:28.069Z,100617.38
2022-09-05T10:37:36.500Z,100626.44
2022-09-05T10:38:40.313Z,100614.41
2022-09-05T10:39:43.495Z,100623.03
2022-09-05T10:41:20.229Z,100616.81
2022-09-05T10:42:27.838Z,100619.31
2022-09-05T10:43:31.036Z,100606.88
2022-09-05T10:44:35.342Z,100607.31
2022-09-05T10:45:45.556Z,100613.22
2022-09-05T10:46:51.623Z,100611.19
2022-09-05T10:48:13.746Z,100607.47
2022-09-05T10:49:16.426Z,100592.56
2022-09-05T10:50:27.427Z,100598.75
2022-09-05T10:51:29.878Z,100593.81
2022-09-05T10:52:43.353Z,100601.22
2022-09-05T10:53:51.159Z,100596.25
2022-09-05T10:54:52.616Z,100599.53
2022-09-05T10:56:18.220Z,100590.44
2022-09-05T10:57:38.552Z,100581.75
2022-09-05T10:59:38.733Z,100590.34
2022-09-05T11:02:17.205Z,100586.97
2022-09-05T11:02:27.377Z,100576.63
2022-09-05T11:03:14.895Z,100584.47
2022-09-05T11:04:27.402Z,100582.75
2022-09-05T11:05:30.761Z,100567.44
2022-09-05T11:06:41.091Z,100568.19
2022-09-05T11:07:53.115Z,100572.25
2022-09-05T11:09:00.590Z,100568.00
2022-09-05T11:10:20.400Z,100566.78
2022-09-05T11:11:28.530Z,100558.91
2022-09-05T11:12:36.629Z,100563.41
2022-09-05T11:13:47.124Z,100571.66
2022-09-05T11:15:04.643Z,100571.19
2022-09-05T11:16:19.382Z,100558.66
2022-09-05T11:17:31.777Z,100563.63
2022-09-05T11:18:56.191Z,100559.44
2022-09-05T11:20:27.655Z,100561.91
2022-09-05T11:21:37.135Z,100558.22
2022-09-05T11:22:39.223Z,100563.63
2022-09-05T11:23:48.735Z,100557.03
2022-09-05T11:24:59.295Z,100550.50
2022-09-05T11:26:04.450Z,100556.31
2022-09-05T11:27:23.714Z,100552.31
2022-09-05T11:28:36.943Z,100549.47
2022-09-05T11:29:44.747Z,100554.03
2022-09-05T11:30:48.760Z,100550.78
2022-09-05T11:34:31.337Z,100549.97
2022-09-05T11:37:43.063Z,100549.22
2022-09-05T11:39:47.266Z,100556.28
2022-09-05T11:39:50.312Z,100549.66
2022-09-05T11:40:08.282Z,100540.16
2022-09-05T11:40:10.551Z,100545.53
2022-09-05T11:41:13.241Z,100542.63
2022-09-05T11:42:33.921Z,100546.78
2022-09-05T11:43:44.478Z,100550.13
2022-09-05T11:44:47.071Z,100550.13
2022-09-05T11:45:49.228Z,100549.28
2022-09-05T11:47:28.137Z,100552.59
2022-09-05T11:48:44.607Z,100550.13
2022-09-05T11:50:00.200Z,100545.19
2022-09-05T11:51:02.116Z,100546.00
2022-09-05T11:52:22.086Z,100540.63
2022-09-05T11:53:38.871Z,100546.00
2022-09-05T11:54:40.604Z,100548.94
2022-09-05T11:56:00.662Z,100544.38
2022-09-05T11:57:32.496Z,100537.78
2022-09-05T11:58:43.438Z,100540.66
2022-09-05T11:59:46.733Z,100540.25
2022-09-05T12:01:41.336Z,100533.22
2022-09-05T12:02:49.695Z,100539.44
2022-09-05T12:04:14.234Z,100537.78
2022-09-05T12:05:49.386Z,100535.28
2022-09-05T12:07:25.232Z,100536.09
2022-09-05T12:08:36.431Z,100534.03
2022-09-05T12:09:40.679Z,100527.44
2022-09-05T12:10:58.535Z,100522.06
2022-09-05T12:12:38.722Z,100527.88
2022-09-05T12:13:55.470Z,100517.56
2022-09-05T12:14:57.552Z,100514.25
2022-09-05T12:16:08.602Z,100522.91
2022-09-05T12:17:17.752Z,100512.16
2022-09-05T12:18:42.937Z,100533.66
2022-09-05T12:19:49.249Z,100521.66
2022-09-05T12:20:50.719Z,100510.94
2022-09-05T12:22:16.404Z,100522.91
2022-09-05T12:23:53.902Z,100509.28
2022-09-05T12:25:24.249Z,100514.66
2022-09-05T12:27:44.289Z,100508.06
2022-09-05T12:29:09.571Z,100510.53
2022-09-05T12:29:38.730Z,100511.75
2022-09-05T12:31:22.149Z,100517.09
2022-09-05T12:32:59.610Z,100510.13
2022-09-05T12:36:05.777Z,100508.03
2022-09-05T12:36:09.947Z,100507.22
2022-09-05T12:40:44.540Z,100498.16
2022-09-05T12:40:55.705Z,100497.72
2022-09-05T12:40:59.480Z,100502.25
2022-09-05T12:41:37.512Z,100496.50
2022-09-05T12:42:14.104Z,100496.06
2022-09-05T12:44:37.011Z,100484.09
2022-09-05T12:44:46.455Z,100486.56
2022-09-05T12:45:56.315Z,100481.19
2022-09-05T12:47:00.142Z,100485.75
2022-09-05T12:48:53.307Z,100482.44
2022-09-05T12:50:15.158Z,100475.44
2022-09-05T12:51:45.826Z,100487.81
2022-09-05T12:52:42.425Z,100484.91
2022-09-05T12:53:49.392Z,100477.47
2022-09-05T12:54:57.162Z,100473.34
2022-09-05T12:56:45.927Z,100478.72
2022-09-05T13:02:41.854Z,100477.09
2022-09-05T13:02:55.755Z,100478.31
2022-09-05T13:03:04.680Z,100480.81
2022-09-05T13:03:08.951Z,100473.38
2022-09-05T13:03:35.685Z,100482.44
2022-09-05T13:04:30.304Z,100480.78
2022-09-05T13:05:54.109Z,100472.53
2022-09-05T13:06:59.115Z,100476.66
2022-09-05T13:08:00.631Z,100466.75
2022-09-05T13:09:03.654Z,100470.47
2022-09-05T13:13:48.581Z,100463.44
2022-09-05T13:14:47.192Z,100470.88
2022-09-05T13:14:58.211Z,100478.31
2022-09-05T13:15:06.136Z,100458.88
2022-09-05T13:16:17.060Z,100456.03
2022-09-05T13:17:31.118Z,100465.94
2022-09-05T13:18:41.630Z,100464.28
2022-09-05T13:19:45.751Z,100462.63
2022-09-05T13:20:56.008Z,100463.06
2022-09-05T13:21:58.344Z,100466.78
2022-09-05T13:23:01.102Z,100476.66
2022-09-05T13:24:05.756Z,100470.88
2022-09-05T13:25:08.838Z,100468.84
2022-09-05T13:26:17.720Z,100467.56
2022-09-05T13:27:21.659Z,100463.88
2022-09-05T13:28:25.175Z,100457.28
2022-09-05T13:29:28.861Z,100465.94
2022-09-05T13:34:05.837Z,100459.34
2022-09-05T13:37:55.782Z,100450.25
2022-09-05T13:37:58.390Z,100454.38
2022-09-05T13:37:59.137Z,100455.22
2022-09-05T13:38:08.166Z,100458.91
2022-09-05T13:38:20.784Z,100459.31
2022-09-05T13:39:01.004Z,100459.72
2022-09-05T13:40:09.609Z,100456.41
2022-09-05T13:41:26.790Z,100447.75
2022-09-05T13:42:33.430Z,100451.91
2022-09-05T13:43:38.306Z,100457.25
2022-09-05T13:44:40.655Z,100441.16
2022-09-05T13:46:06.397Z,100451.91
2022-09-05T13:47:28.934Z,100451.91
2022-09-05T13:49:23.574Z,100448.63
2022-09-05T13:49:56.505Z,100446.13
2022-09-05T13:51:06.931Z,100448.59
2022-09-05T13:52:26.419Z,100453.13
2022-09-05T13:53:39.806Z,100444.06
2022-09-05T13:55:01.582Z,100441.16
2022-09-05T13:56:24.144Z,100449.00
2022-09-05T13:57:32.737Z,100443.66
2022-09-05T13:58:45.438Z,100450.25
2022-09-05T14:00:27.649Z,100442.78
2022-09-05T14:02:24.640Z,100446.09
2022-09-05T14:03:38.316Z,100433.34
2022-09-05T14:06:09.972Z,100442.84
2022-09-05T14:07:47.163Z,100432.94
2022-09-05T14:10:21.667Z,100437.47
2022-09-05T14:11:31.978Z,100431.69
2022-09-05T14:12:44.447Z,100442.81
2022-09-05T14:13:48.826Z,100434.59
2022-09-05T14:16:14.931Z,100426.34
2022-09-05T14:19:01.307Z,100420.13
2022-09-05T14:20:21.503Z,100423.03
2022-09-05T14:21:22.985Z,100415.59
2022-09-05T14:22:37.747Z,100418.06
2022-09-05T14:23:56.672Z,100413.53
2022-09-05T14:24:58.720Z,100418.88
2022-09-05T14:26:02.599Z,100410.19
2022-09-05T14:27:06.063Z,100415.53
2022-09-05T14:28:14.110Z,100410.19
2022-09-05T14:29:15.602Z,100415.53
2022-09-05T14:31:37.165Z,100410.63
2022-09-05T14:37:34.238Z,100406.09
2022-09-05T14:37:42.672Z,100407.75
2022-09-05T14:37:49.519Z,100402.38